sensor_id;sensor_type;location;lat;lon;timestamp;pressure;altitude;pressure_sealevel;temperature;humidity
18821;BME280;9539;59.332;18.034;2022-07-06T00:00:23;100806.03;;;16.05;100.00
18821;BME280;9539;59.332;18.034;2022-07-06T00:02:50;100800.44;;;15.97;100.00
18821;BME280;9539;59.332;18.034;2022-07-06T00:05:17;100809.72;;;15.93;100.00
18821;BME280;9539;59.332;18.034;2022-07-06T00:07:45;100813.59;;;15.89;100.00
18821;BME280;9539;59.332;18.034;2022-07-06T00:10:12;100799.00;;;15.82;100.00
18821;BME280;9539;59.332;18.034;2022-07-06T00:12:41;100811.56;;;15.81;100.00
18821;BME280;9539;59.332;18.034;2022-07-06T00:15:10;100799.78;;;15.73;100.00
18821;BME280;9539;59.332;18.034;2022-07-06T00:17:36;100796.13;;;15.74;100.00
18821;BME280;9539;59.332;18.034;2022-07-06T00:20:03;100806.50;;;15.67;100.00
18821;BME280;9539;59.332;18.034;2022-07-06T00:22:33;100797.75;;;15.54;100.00
18821;BME280;9539;59.332;18.034;2022-07-06T00:25:00;100804.06;;;15.53;100.00
18821;BME280;9539;59.332;18.034;2022-07-06T00:27:26;100796.53;;;15.58;100.00
18821;BME280;9539;59.332;18.034;2022-07-06T00:29:53;100804.53;;;15.47;100.00
18821;BME280;9539;59.332;18.034;2022-07-06T00:32:21;100796.78;;;15.55;100.00
18821;BME280;9539;59.332;18.034;2022-07-06T00:34:48;100792.41;;;15.54;100.00
18821;BME280;9539;59.332;18.034;2022-07-06T00:37:15;100795.03;;;15.43;100.00
18821;BME280;9539;59.332;18.034;2022-07-06T00:39:41;100799.91;;;15.49;100.00
18821;BME280;9539;59.332;18.034;2022-07-06T00:42:08;100788.97;;;15.52;100.00
18821;BME280;9539;59.332;18.034;2022-07-06T00:44:34;100788.88;;;15.42;100.00
18821;BME280;9539;59.332;18.034;2022-07-06T00:47:01;100795.69;;;15.35;100.00
18821;BME280;9539;59.332;18.034;2022-07-06T00:49:32;100795.91;;;15.32;100.00
18821;BME280;9539;59.332;18.034;2022-07-06T00:52:17;100798.97;;;15.28;100.00
18821;BME280;9539;59.332;18.034;2022-07-06T00:54:44;100778.06;;;15.22;100.00
18821;BME280;9539;59.332;18.034;2022-07-06T00:57:11;100791.78;;;15.17;100.00
18821;BME280;9539;59.332;18.034;2022-07-06T00:59:38;100789.59;;;15.22;100.00
18821;BME280;9539;59.332;18.034;2022-07-06T01:02:05;100793.50;;;15.29;100.00
18821;BME280;9539;59.332;18.034;2022-07-06T01:04:35;100789.59;;;15.22;100.00
18821;BME280;9539;59.332;18.034;2022-07-06T01:07:03;100791.31;;;15.23;100.00
18821;BME280;9539;59.332;18.034;2022-07-06T01:09:29;100790.09;;;15.16;100.00
18821;BME280;9539;59.332;18.034;2022-07-06T01:12:02;100787.16;;;15.08;100.00
18821;BME280;9539;59.332;18.034;2022-07-06T01:14:30;100785.22;;;15.10;100.00
18821;BME280;9539;59.332;18.034;2022-07-06T01:16:57;100794.34;;;15.07;100.00
18821;BME280;9539;59.332;18.034;2022-07-06T01:19:26;100788.25;;;15.05;100.00
18821;BME280;9539;59.332;18.034;2022-07-06T01:21:54;100791.16;;;15.13;100.00
18821;BME280;9539;59.332;18.034;2022-07-06T01:24:23;100789.34;;;15.03;100.00
18821;BME280;9539;59.332;18.034;2022-07-06T01:26:52;100788.88;;;15.09;100.00
18821;BME280;9539;59.332;18.034;2022-07-06T01:29:22;100791.41;;;15.10;100.00
18821;BME280;9539;59.332;18.034;2022-07-06T01:31:52;100777.31;;;14.86;100.00
18821;BME280;9539;59.332;18.034;2022-07-06T01:34:19;100800.88;;;14.92;100.00
18821;BME280;9539;59.332;18.034;2022-07-06T01:36:51;100789.22;;;14.82;100.00
18821;BME280;9539;59.332;18.034;2022-07-06T01:39:25;100792.25;;;14.89;100.00
18821;BME280;9539;59.332;18.034;2022-07-06T01:41:52;100797.97;;;14.95;100.00
18821;BME280;9539;59.332;18.034;2022-07-06T01:44:19;100799.41;;;14.77;100.00
18821;BME280;9539;59.332;18.034;2022-07-06T01:46:45;100793.59;;;14.83;100.00
18821;BME280;9539;59.332;18.034;2022-07-06T01:49:14;100798.19;;;14.92;100.00
18821;BME280;9539;59.332;18.034;2022-07-06T01:51:41;100788.47;;;14.80;100.00
18821;BME280;9539;59.332;18.034;2022-07-06T01:54:08;100794.66;;;14.80;100.00
18821;BME280;9539;59.332;18.034;2022-07-06T01:56:36;100794.28;;;14.74;100.00
18821;BME280;9539;59.332;18.034;2022-07-06T01:59:02;100787.50;;;14.70;100.00
18821;BME280;9539;59.332;18.034;2022-07-06T02:01:29;100797.69;;;14.76;100.00
18821;BME280;9539;59.332;18.034;2022-07-06T02:03:56;100799.50;;;14.75;100.00
18821;BME280;9539;59.332;18.034;2022-07-06T02:06:22;100796.34;;;14.70;100.00
18821;BME280;9539;59.332;18.034;2022-07-06T02:08:49;100790.53;;;14.76;100.00
18821;BME280;9539;59.332;18.034;2022-07-06T02:11:19;100794.16;;;14.64;100.00
18821;BME280;9539;59.332;18.034;2022-07-06T02:13:48;100790.03;;;14.71;100.00
18821;BME280;9539;59.332;18.034;2022-07-06T02:16:15;100791.34;;;14.66;100.00
18821;BME280;9539;59.332;18.034;2022-07-06T02:18:41;100783.84;;;14.71;100.00
18821;BME280;9539;59.332;18.034;2022-07-06T02:21:08;100785.31;;;14.75;100.00
18821;BME280;9539;59.332;18.034;2022-07-06T02:23:35;100791.00;;;14.70;100.00
18821;BME280;9539;59.332;18.034;2022-07-06T02:26:01;100787.97;;;14.75;100.00
18821;BME280;9539;59.332;18.034;2022-07-06T02:28:29;100787.50;;;14.70;100.00
18821;BME280;9539;59.332;18.034;2022-07-06T02:31:00;100780.16;;;14.61;100.00
18821;BME280;9539;59.332;18.034;2022-07-06T02:33:30;100777.78;;;14.69;100.00
18821;BME280;9539;59.332;18.034;2022-07-06T02:35:56;100779.69;;;14.67;100.00
18821;BME280;9539;59.332;18.034;2022-07-06T02:38:23;100783.34;;;14.66;100.00
18821;BME280;9539;59.332;18.034;2022-07-06T02:40:53;100779.84;;;14.76;100.00
18821;BME280;9539;59.332;18.034;2022-07-06T02:43:19;100786.75;;;14.68;100.00
18821;BME280;9539;59.332;18.034;2022-07-06T02:45:49;100775.94;;;14.69;100.00
18821;BME280;9539;59.332;18.034;2022-07-06T02:48:17;100777.41;;;14.73;100.00
18821;BME280;9539;59.332;18.034;2022-07-06T02:50:46;100781.66;;;14.76;100.00
18821;BME280;9539;59.332;18.034;2022-07-06T02:53:13;100785.41;;;14.73;100.00
18821;BME280;9539;59.332;18.034;2022-07-06T02:55:40;100775.78;;;14.60;100.00
18821;BME280;9539;59.332;18.034;2022-07-06T02:58:09;100774.94;;;14.59;100.00
18821;BME280;9539;59.332;18.034;2022-07-06T03:00:35;100768.16;;;14.66;100.00
18821;BME280;9539;59.332;18.034;2022-07-06T03:03:02;100756.25;;;14.59;100.00
18821;BME280;9539;59.332;18.034;2022-07-06T03:05:30;100775.09;;;14.69;100.00
18821;BME280;9539;59.332;18.034;2022-07-06T03:07:56;100778.88;;;14.77;100.00
18821;BME280;9539;59.332;18.034;2022-07-06T03:10:23;100768.66;;;14.71;100.00
18821;BME280;9539;59.332;18.034;2022-07-06T03:12:50;100773.78;;;14.74;100.00
18821;BME280;9539;59.332;18.034;2022-07-06T03:15:19;100770.53;;;14.47;100.00
18821;BME280;9539;59.332;18.034;2022-07-06T03:17:45;100771.59;;;14.79;100.00
18821;BME280;9539;59.332;18.034;2022-07-06T03:20:12;100773.19;;;14.82;100.00
18821;BME280;9539;59.332;18.034;2022-07-06T03:22:43;100783.38;;;15.10;100.00
18821;BME280;9539;59.332;18.034;2022-07-06T03:25:09;100775.34;;;15.44;100.00
18821;BME280;9539;59.332;18.034;2022-07-06T03:27:36;100771.16;;;15.84;100.00
18821;BME280;9539;59.332;18.034;2022-07-06T03:30:03;100768.00;;;16.43;100.00
18821;BME280;9539;59.332;18.034;2022-07-06T03:32:30;100775.44;;;16.19;100.00
18821;BME280;9539;59.332;18.034;2022-07-06T03:34:57;100768.88;;;15.80;100.00
18821;BME280;9539;59.332;18.034;2022-07-06T03:37:24;100771.63;;;15.89;100.00
18821;BME280;9539;59.332;18.034;2022-07-06T03:39:54;100773.78;;;15.75;100.00
18821;BME280;9539;59.332;18.034;2022-07-06T03:42:24;100775.59;;;15.74;100.00
18821;BME280;9539;59.332;18.034;2022-07-06T03:44:53;100772.03;;;15.85;100.00
18821;BME280;9539;59.332;18.034;2022-07-06T03:47:20;100769.66;;;15.59;100.00
18821;BME280;9539;59.332;18.034;2022-07-06T03:49:47;100773.03;;;15.50;100.00
18821;BME280;9539;59.332;18.034;2022-07-06T03:52:13;100770.34;;;15.50;100.00
18821;BME280;9539;59.332;18.034;2022-07-06T03:54:43;100768.19;;;15.67;100.00
18821;BME280;9539;59.332;18.034;2022-07-06T03:57:11;100767.84;;;15.60;100.00
18821;BME280;9539;59.332;18.034;2022-07-06T03:59:38;100758.06;;;15.81;100.00
18821;BME280;9539;59.332;18.034;2022-07-06T04:02:05;100763.16;;;15.84;100.00
18821;BME280;9539;59.332;18.034;2022-07-06T04:04:33;100772.94;;;15.95;100.00
18821;BME280;9539;59.332;18.034;2022-07-06T04:06:59;100767.91;;;15.81;100.00
18821;BME280;9539;59.332;18.034;2022-07-06T04:09:29;100765.97;;;15.72;100.00
18821;BME280;9539;59.332;18.034;2022-07-06T04:11:55;100756.88;;;15.95;100.00
18821;BME280;9539;59.332;18.034;2022-07-06T04:14:23;100765.09;;;16.14;100.00
18821;BME280;9539;59.332;18.034;2022-07-06T04:16:50;100772.97;;;16.48;100.00
18821;BME280;9539;59.332;18.034;2022-07-06T04:19:20;100775.47;;;17.11;100.00
18821;BME280;9539;59.332;18.034;2022-07-06T04:21:55;100775.78;;;17.58;100.00
18821;BME280;9539;59.332;18.034;2022-07-06T04:24:22;100771.78;;;18.21;100.00
18821;BME280;9539;59.332;18.034;2022-07-06T04:26:48;100777.13;;;19.26;100.00
18821;BME280;9539;59.332;18.034;2022-07-06T04:29:15;100769.28;;;19.69;100.00
18821;BME280;9539;59.332;18.034;2022-07-06T04:31:45;100771.00;;;20.06;100.00
18821;BME280;9539;59.332;18.034;2022-07-06T04:34:12;100772.72;;;18.97;100.00
18821;BME280;9539;59.332;18.034;2022-07-06T04:36:38;100779.91;;;19.34;100.00
18821;BME280;9539;59.332;18.034;2022-07-06T04:39:05;100771.94;;;18.68;100.00
18821;BME280;9539;59.332;18.034;2022-07-06T04:41:34;100777.44;;;18.86;100.00
18821;BME280;9539;59.332;18.034;2022-07-06T04:44:01;100774.63;;;19.14;100.00
18821;BME280;9539;59.332;18.034;2022-07-06T04:46:28;100765.31;;;18.99;100.00
18821;BME280;9539;59.332;18.034;2022-07-06T04:48:56;100766.88;;;19.02;100.00
18821;BME280;9539;59.332;18.034;2022-07-06T04:51:25;100766.16;;;19.46;100.00
18821;BME280;9539;59.332;18.034;2022-07-06T04:53:55;100765.81;;;19.22;100.00
18821;BME280;9539;59.332;18.034;2022-07-06T04:56:22;100768.06;;;20.17;100.00
18821;BME280;9539;59.332;18.034;2022-07-06T04:58:48;100767.31;;;20.86;100.00
18821;BME280;9539;59.332;18.034;2022-07-06T05:01:15;100765.34;;;21.56;100.00
18821;BME280;9539;59.332;18.034;2022-07-06T05:03:44;100769.59;;;21.74;100.00
18821;BME280;9539;59.332;18.034;2022-07-06T05:06:15;100764.19;;;21.24;100.00
18821;BME280;9539;59.332;18.034;2022-07-06T05:08:43;100753.66;;;21.47;100.00
18821;BME280;9539;59.332;18.034;2022-07-06T05:11:12;100755.84;;;22.02;100.00
18821;BME280;9539;59.332;18.034;2022-07-06T05:13:43;100743.19;;;22.51;91.36
18821;BME280;9539;59.332;18.034;2022-07-06T05:16:10;100737.22;;;23.43;88.43
18821;BME280;9539;59.332;18.034;2022-07-06T05:18:36;100744.53;;;22.87;92.20
18821;BME280;9539;59.332;18.034;2022-07-06T05:21:03;100745.09;;;23.61;85.03
18821;BME280;9539;59.332;18.034;2022-07-06T05:23:33;100745.03;;;23.77;81.60
18821;BME280;9539;59.332;18.034;2022-07-06T05:26:03;100743.50;;;24.28;76.54
18821;BME280;9539;59.332;18.034;2022-07-06T05:28:32;100737.94;;;23.37;79.54
18821;BME280;9539;59.332;18.034;2022-07-06T05:30:59;100739.69;;;24.14;76.41
18821;BME280;9539;59.332;18.034;2022-07-06T05:33:27;100742.63;;;25.32;70.33
18821;BME280;9539;59.332;18.034;2022-07-06T05:35:54;100735.09;;;24.60;74.20
18821;BME280;9539;59.332;18.034;2022-07-06T05:38:20;100735.97;;;24.15;76.87
18821;BME280;9539;59.332;18.034;2022-07-06T05:40:48;100734.72;;;22.86;85.18
18821;BME280;9539;59.332;18.034;2022-07-06T05:43:18;100727.06;;;23.45;83.01
18821;BME280;9539;59.332;18.034;2022-07-06T05:45:45;100726.78;;;23.94;83.02
18821;BME280;9539;59.332;18.034;2022-07-06T05:48:11;100737.41;;;24.26;78.92
18821;BME280;9539;59.332;18.034;2022-07-06T05:50:55;100726.63;;;23.95;81.13
18821;BME280;9539;59.332;18.034;2022-07-06T05:53:22;100735.66;;;24.56;76.59
18821;BME280;9539;59.332;18.034;2022-07-06T05:55:50;100740.25;;;25.73;67.79
18821;BME280;9539;59.332;18.034;2022-07-06T05:58:17;100737.69;;;24.08;76.50
18821;BME280;9539;59.332;18.034;2022-07-06T06:00:43;100733.41;;;22.25;91.00
18821;BME280;9539;59.332;18.034;2022-07-06T06:03:10;100732.28;;;24.31;79.97
18821;BME280;9539;59.332;18.034;2022-07-06T06:05:39;100732.78;;;25.60;69.86
18821;BME280;9539;59.332;18.034;2022-07-06T06:08:06;100725.16;;;25.56;68.58
18821;BME280;9539;59.332;18.034;2022-07-06T06:10:35;100727.47;;;26.09;64.92
18821;BME280;9539;59.332;18.034;2022-07-06T06:13:03;100718.00;;;24.37;72.96
18821;BME280;9539;59.332;18.034;2022-07-06T06:15:30;100722.75;;;24.12;78.52
18821;BME280;9539;59.332;18.034;2022-07-06T06:17:56;100725.53;;;25.67;69.04
18821;BME280;9539;59.332;18.034;2022-07-06T06:20:23;100729.16;;;26.59;63.52
18821;BME280;9539;59.332;18.034;2022-07-06T06:22:51;100715.53;;;26.10;68.12
18821;BME280;9539;59.332;18.034;2022-07-06T06:25:19;100710.03;;;26.46;63.42
18821;BME280;9539;59.332;18.034;2022-07-06T06:27:49;100714.81;;;26.72;58.82
18821;BME280;9539;59.332;18.034;2022-07-06T06:30:20;100716.75;;;26.78;60.44
18821;BME280;9539;59.332;18.034;2022-07-06T06:32:47;100706.56;;;26.59;60.36
18821;BME280;9539;59.332;18.034;2022-07-06T06:35:17;100715.81;;;26.92;60.06
18821;BME280;9539;59.332;18.034;2022-07-06T06:37:43;100714.78;;;27.89;55.02
18821;BME280;9539;59.332;18.034;2022-07-06T06:40:11;100710.16;;;27.28;58.04
18821;BME280;9539;59.332;18.034;2022-07-06T06:42:39;100714.19;;;26.70;58.61
18821;BME280;9539;59.332;18.034;2022-07-06T06:45:07;100718.56;;;26.22;63.65
18821;BME280;9539;59.332;18.034;2022-07-06T06:47:35;100719.41;;;26.01;63.94
18821;BME280;9539;59.332;18.034;2022-07-06T06:50:02;100726.81;;;25.06;65.46
18821;BME280;9539;59.332;18.034;2022-07-06T06:52:29;100718.81;;;24.60;72.45
18821;BME280;9539;59.332;18.034;2022-07-06T06:54:56;100719.94;;;26.33;61.22
18821;BME280;9539;59.332;18.034;2022-07-06T06:57:22;100719.78;;;26.62;60.15
18821;BME280;9539;59.332;18.034;2022-07-06T06:59:49;100722.03;;;25.23;63.35
18821;BME280;9539;59.332;18.034;2022-07-06T07:02:16;100727.09;;;23.99;73.13
18821;BME280;9539;59.332;18.034;2022-07-06T07:04:44;100719.78;;;24.30;74.40
18821;BME280;9539;59.332;18.034;2022-07-06T07:07:10;100720.16;;;25.74;64.92
18821;BME280;9539;59.332;18.034;2022-07-06T07:09:40;100716.69;;;24.33;70.25
18821;BME280;9539;59.332;18.034;2022-07-06T07:12:07;100719.25;;;23.81;75.68
18821;BME280;9539;59.332;18.034;2022-07-06T07:14:37;100710.91;;;24.51;73.54
18821;BME280;9539;59.332;18.034;2022-07-06T07:17:03;100710.44;;;25.79;63.83
18821;BME280;9539;59.332;18.034;2022-07-06T07:19:30;100699.94;;;26.68;59.67
18821;BME280;9539;59.332;18.034;2022-07-06T07:21:58;100709.03;;;25.18;67.00
18821;BME280;9539;59.332;18.034;2022-07-06T07:24:25;100713.97;;;25.59;65.35
18821;BME280;9539;59.332;18.034;2022-07-06T07:26:52;100712.84;;;25.09;68.84
18821;BME280;9539;59.332;18.034;2022-07-06T07:29:19;100696.56;;;25.96;65.17
18821;BME280;9539;59.332;18.034;2022-07-06T07:31:45;100704.13;;;25.28;68.50
18821;BME280;9539;59.332;18.034;2022-07-06T07:34:12;100703.59;;;25.54;64.75
18821;BME280;9539;59.332;18.034;2022-07-06T07:36:38;100712.72;;;23.98;74.87
18821;BME280;9539;59.332;18.034;2022-07-06T07:39:09;100709.38;;;25.44;68.72
18821;BME280;9539;59.332;18.034;2022-07-06T07:41:36;100701.28;;;25.87;64.29
18821;BME280;9539;59.332;18.034;2022-07-06T07:44:05;100700.16;;;26.45;62.20
18821;BME280;9539;59.332;18.034;2022-07-06T07:46:31;100704.28;;;25.92;63.23
18821;BME280;9539;59.332;18.034;2022-07-06T07:48:58;100699.97;;;27.02;58.21
18821;BME280;9539;59.332;18.034;2022-07-06T07:51:25;100693.09;;;25.15;69.22
18821;BME280;9539;59.332;18.034;2022-07-06T07:53:54;100701.41;;;24.69;68.30
18821;BME280;9539;59.332;18.034;2022-07-06T07:56:22;100703.22;;;26.57;62.87
18821;BME280;9539;59.332;18.034;2022-07-06T07:58:49;100700.31;;;25.95;61.81
18821;BME280;9539;59.332;18.034;2022-07-06T08:01:15;100706.13;;;25.20;64.52
18821;BME280;9539;59.332;18.034;2022-07-06T08:03:44;100705.13;;;25.93;63.34
18821;BME280;9539;59.332;18.034;2022-07-06T08:06:11;100702.63;;;26.89;56.81
18821;BME280;9539;59.332;18.034;2022-07-06T08:08:38;100692.16;;;26.16;59.10
18821;BME280;9539;59.332;18.034;2022-07-06T08:11:05;100692.75;;;27.83;51.69
18821;BME280;9539;59.332;18.034;2022-07-06T08:13:40;100697.97;;;26.13;55.34
18821;BME280;9539;59.332;18.034;2022-07-06T08:16:07;100700.59;;;26.42;54.35
18821;BME280;9539;59.332;18.034;2022-07-06T08:18:37;100698.53;;;26.79;54.96
18821;BME280;9539;59.332;18.034;2022-07-06T08:21:06;100691.63;;;27.58;49.62
18821;BME280;9539;59.332;18.034;2022-07-06T08:23:33;100699.09;;;28.10;47.64
18821;BME280;9539;59.332;18.034;2022-07-06T08:26:01;100695.28;;;27.31;47.59
18821;BME280;9539;59.332;18.034;2022-07-06T08:28:27;100698.28;;;28.16;46.37
18821;BME280;9539;59.332;18.034;2022-07-06T08:30:56;100694.88;;;28.01;45.12
18821;BME280;9539;59.332;18.034;2022-07-06T08:33:23;100695.16;;;28.19;48.18
18821;BME280;9539;59.332;18.034;2022-07-06T08:35:52;100690.03;;;28.95;44.81
18821;BME280;9539;59.332;18.034;2022-07-06T08:38:22;100684.50;;;29.66;41.38
18821;BME280;9539;59.332;18.034;2022-07-06T08:40:52;100685.91;;;29.31;41.17
18821;BME280;9539;59.332;18.034;2022-07-06T08:43:19;100694.25;;;28.85;41.72
18821;BME280;9539;59.332;18.034;2022-07-06T08:45:49;100686.97;;;28.19;43.02
18821;BME280;9539;59.332;18.034;2022-07-06T08:48:23;100686.50;;;28.75;43.60
18821;BME280;9539;59.332;18.034;2022-07-06T08:50:50;100689.41;;;29.51;40.51
18821;BME280;9539;59.332;18.034;2022-07-06T08:53:19;100674.56;;;28.37;42.30
18821;BME280;9539;59.332;18.034;2022-07-06T08:55:47;100685.34;;;29.22;41.84
18821;BME280;9539;59.332;18.034;2022-07-06T08:58:15;100685.28;;;28.18;43.39
18821;BME280;9539;59.332;18.034;2022-07-06T09:00:44;100683.34;;;28.78;42.86
18821;BME280;9539;59.332;18.034;2022-07-06T09:03:11;100680.19;;;28.61;41.82
18821;BME280;9539;59.332;18.034;2022-07-06T09:05:45;100676.59;;;28.02;42.83
18821;BME280;9539;59.332;18.034;2022-07-06T09:08:12;100682.88;;;29.01;41.85
18821;BME280;9539;59.332;18.034;2022-07-06T09:10:39;100679.56;;;28.79;41.56
18821;BME280;9539;59.332;18.034;2022-07-06T09:13:07;100677.25;;;29.47;40.02
18821;BME280;9539;59.332;18.034;2022-07-06T09:15:35;100673.44;;;28.97;40.98
18821;BME280;9539;59.332;18.034;2022-07-06T09:18:04;100676.41;;;29.47;40.69
18821;BME280;9539;59.332;18.034;2022-07-06T09:20:31;100677.31;;;29.72;39.83
18821;BME280;9539;59.332;18.034;2022-07-06T09:23:00;100672.88;;;29.33;40.21
18821;BME280;9539;59.332;18.034;2022-07-06T09:25:27;100659.00;;;29.41;39.94
18821;BME280;9539;59.332;18.034;2022-07-06T09:27:58;100674.47;;;29.54;39.69
18821;BME280;9539;59.332;18.034;2022-07-06T09:30:28;100664.06;;;30.07;38.78
18821;BME280;9539;59.332;18.034;2022-07-06T09:32:56;100666.06;;;28.91;40.79
18821;BME280;9539;59.332;18.034;2022-07-06T09:35:25;100646.44;;;30.46;38.30
18821;BME280;9539;59.332;18.034;2022-07-06T09:38:05;100658.06;;;29.92;38.64
18821;BME280;9539;59.332;18.034;2022-07-06T09:40:34;100643.94;;;29.88;38.92
18821;BME280;9539;59.332;18.034;2022-07-06T09:43:25;100669.06;;;30.10;38.89
18821;BME280;9539;59.332;18.034;2022-07-06T09:45:53;100666.78;;;30.32;38.44
18821;BME280;9539;59.332;18.034;2022-07-06T09:48:21;100664.44;;;29.79;38.21
18821;BME280;9539;59.332;18.034;2022-07-06T09:50:49;100661.91;;;30.34;38.17
18821;BME280;9539;59.332;18.034;2022-07-06T09:53:20;100660.06;;;30.28;38.02
18821;BME280;9539;59.332;18.034;2022-07-06T09:55:49;100663.41;;;29.42;39.71
18821;BME280;9539;59.332;18.034;2022-07-06T09:58:17;100662.81;;;28.36;41.38
18821;BME280;9539;59.332;18.034;2022-07-06T10:00:45;100660.44;;;27.94;42.65
18821;BME280;9539;59.332;18.034;2022-07-06T10:03:12;100659.66;;;29.23;40.67
18821;BME280;9539;59.332;18.034;2022-07-06T10:05:42;100658.72;;;29.87;38.40
18821;BME280;9539;59.332;18.034;2022-07-06T10:08:11;100657.44;;;29.52;38.50
18821;BME280;9539;59.332;18.034;2022-07-06T10:10:41;100655.38;;;28.96;39.14
18821;BME280;9539;59.332;18.034;2022-07-06T10:13:08;100657.34;;;28.49;40.83
18821;BME280;9539;59.332;18.034;2022-07-06T10:15:40;100656.28;;;29.34;38.83
18821;BME280;9539;59.332;18.034;2022-07-06T10:18:08;100654.56;;;30.09;36.69
18821;BME280;9539;59.332;18.034;2022-07-06T10:20:36;100660.69;;;31.16;35.09
18821;BME280;9539;59.332;18.034;2022-07-06T10:23:04;100652.28;;;30.31;34.78
18821;BME280;9539;59.332;18.034;2022-07-06T10:25:31;100650.81;;;30.04;34.52
18821;BME280;9539;59.332;18.034;2022-07-06T10:28:00;100651.00;;;28.82;37.20
18821;BME280;9539;59.332;18.034;2022-07-06T10:30:28;100652.44;;;30.11;35.39
18821;BME280;9539;59.332;18.034;2022-07-06T10:32:56;100655.91;;;29.62;36.63
18821;BME280;9539;59.332;18.034;2022-07-06T10:35:23;100654.16;;;28.52;38.36
18821;BME280;9539;59.332;18.034;2022-07-06T10:38:03;100648.22;;;28.95;37.91
18821;BME280;9539;59.332;18.034;2022-07-06T10:40:33;100654.47;;;29.60;36.96
18821;BME280;9539;59.332;18.034;2022-07-06T10:43:19;100652.75;;;29.21;36.57
18821;BME280;9539;59.332;18.034;2022-07-06T10:45:50;100641.59;;;28.51;37.86
18821;BME280;9539;59.332;18.034;2022-07-06T10:48:19;100645.88;;;28.98;37.46
18821;BME280;9539;59.332;18.034;2022-07-06T10:50:49;100635.06;;;28.33;38.95
18821;BME280;9539;59.332;18.034;2022-07-06T10:53:17;100636.81;;;27.33;40.94
18821;BME280;9539;59.332;18.034;2022-07-06T10:55:49;100636.53;;;27.89;41.92
18821;BME280;9539;59.332;18.034;2022-07-06T10:58:36;100629.41;;;28.41;41.81
18821;BME280;9539;59.332;18.034;2022-07-06T11:01:05;100623.72;;;27.76;41.99
18821;BME280;9539;59.332;18.034;2022-07-06T11:03:34;100628.59;;;28.14;41.58
18821;BME280;9539;59.332;18.034;2022-07-06T11:06:04;100625.16;;;27.53;42.03
18821;BME280;9539;59.332;18.034;2022-07-06T11:09:00;100632.94;;;27.82;42.34
18821;BME280;9539;59.332;18.034;2022-07-06T11:11:38;100628.03;;;27.44;42.76
18821;BME280;9539;59.332;18.034;2022-07-06T11:14:08;100638.56;;;26.10;43.56
18821;BME280;9539;59.332;18.034;2022-07-06T11:16:38;100643.16;;;26.65;41.91
18821;BME280;9539;59.332;18.034;2022-07-06T11:19:07;100647.06;;;26.49;41.51
18821;BME280;9539;59.332;18.034;2022-07-06T11:21:55;100642.78;;;26.40;40.60
18821;BME280;9539;59.332;18.034;2022-07-06T11:24:25;100643.13;;;25.60;42.09
18821;BME280;9539;59.332;18.034;2022-07-06T11:26:53;100633.78;;;26.12;41.20
18821;BME280;9539;59.332;18.034;2022-07-06T11:29:23;100646.28;;;25.85;41.92
18821;BME280;9539;59.332;18.034;2022-07-06T11:31:54;100636.44;;;26.05;41.96
18821;BME280;9539;59.332;18.034;2022-07-06T11:34:25;100638.38;;;26.11;41.62
18821;BME280;9539;59.332;18.034;2022-07-06T11:36:54;100626.09;;;25.37;43.89
18821;BME280;9539;59.332;18.034;2022-07-06T11:39:26;100620.22;;;25.33;46.74
18821;BME280;9539;59.332;18.034;2022-07-06T11:41:56;100615.41;;;25.35;47.84
18821;BME280;9539;59.332;18.034;2022-07-06T11:44:27;100622.47;;;25.66;47.97
18821;BME280;9539;59.332;18.034;2022-07-06T11:46:54;100622.59;;;25.79;47.88
18821;BME280;9539;59.332;18.034;2022-07-06T11:49:21;100622.22;;;25.10;49.90
18821;BME280;9539;59.332;18.034;2022-07-06T11:51:51;100619.19;;;25.56;49.43
18821;BME280;9539;59.332;18.034;2022-07-06T11:54:24;100621.41;;;25.45;47.30
18821;BME280;9539;59.332;18.034;2022-07-06T11:56:55;100617.84;;;24.80;46.15
18821;BME280;9539;59.332;18.034;2022-07-06T11:59:27;100615.31;;;24.63;47.50
18821;BME280;9539;59.332;18.034;2022-07-06T12:01:58;100603.13;;;25.18;46.44
18821;BME280;9539;59.332;18.034;2022-07-06T12:04:26;100614.91;;;25.25;46.33
18821;BME280;9539;59.332;18.034;2022-07-06T12:06:53;100613.31;;;25.16;48.50
18821;BME280;9539;59.332;18.034;2022-07-06T12:09:20;100615.41;;;25.35;46.73
18821;BME280;9539;59.332;18.034;2022-07-06T12:11:48;100607.56;;;25.40;45.48
18821;BME280;9539;59.332;18.034;2022-07-06T12:14:18;100608.13;;;25.00;46.56
18821;BME280;9539;59.332;18.034;2022-07-06T12:16:48;100620.84;;;24.18;48.87
18821;BME280;9539;59.332;18.034;2022-07-06T12:19:16;100621.19;;;24.23;50.27
18821;BME280;9539;59.332;18.034;2022-07-06T12:21:47;100610.56;;;24.80;47.99
18821;BME280;9539;59.332;18.034;2022-07-06T12:24:19;100610.19;;;24.98;49.60
18821;BME280;9539;59.332;18.034;2022-07-06T12:26:47;100620.63;;;25.16;49.50
18821;BME280;9539;59.332;18.034;2022-07-06T12:29:14;100611.56;;;24.79;49.90
18821;BME280;9539;59.332;18.034;2022-07-06T12:31:43;100611.38;;;24.51;51.87
18821;BME280;9539;59.332;18.034;2022-07-06T12:34:21;100613.94;;;25.33;50.33
18821;BME280;9539;59.332;18.034;2022-07-06T12:36:53;100607.34;;;25.42;47.38
18821;BME280;9539;59.332;18.034;2022-07-06T12:39:21;100604.22;;;25.24;47.67
18821;BME280;9539;59.332;18.034;2022-07-06T12:41:49;100595.72;;;24.09;50.75
18821;BME280;9539;59.332;18.034;2022-07-06T12:44:18;100589.78;;;24.58;50.32
18821;BME280;9539;59.332;18.034;2022-07-06T12:46:45;100592.94;;;25.05;49.52
18821;BME280;9539;59.332;18.034;2022-07-06T12:49:19;100590.72;;;24.50;51.71
18821;BME280;9539;59.332;18.034;2022-07-06T12:52:08;100592.06;;;24.02;56.85